| time (UTC) | temp C | wind direction | speed KPH | gust KPH | rain 1hr cm | rain 24hr cm | rain mn cm | humidity % | barometer mb |
| 20260507075249 | 10 | 153 | 0.0 | 3.2 | 0.00 | 0.00 | 0.00 | 45 | 1017.4 |
| 20260507073549 | 9 | 236 | 0.0 | 3.2 | 0.00 | 0.00 | 0.00 | 53 | 1017.5 |
| 20260507071934 | 8 | 228 | 0.0 | 3.2 | 0.00 | 0.00 | 0.00 | 56 | 1017.6 |
| 20260507070222 | 8 | 228 | 0.0 | 4.8 | 0.00 | 0.00 | 0.00 | 59 | 1017.5 |
| 20260507070219 | 8 | 228 | 0.0 | 4.8 | 0.00 | 0.00 | 0.00 | 1017.5 | |
| 20260507070214 | 8 | 228 | 0.0 | 4.8 | 0.00 | 0.00 | 0.00 | 59 | 1017.5 |
| 20260507064259 | 7 | 225 | 0.0 | 4.8 | 0.00 | 0.00 | 0.00 | 61 | 1017.7 |
| 20260507062259 | 5 | 90 | 0.0 | 3.2 | 0.00 | 0.00 | 0.00 | 74 | 1017.7 |
| 20260507060634 | 3 | 90 | 0.0 | 1.6 | 0.00 | 0.00 | 0.00 | 82 | 1017.8 |
| 20260507054905 | 2 | 90 | 0.0 | 3.2 | 0.00 | 0.00 | 0.00 | 85 | 1017.7 |
| 20260507053114 | 1 | 90 | 0.0 | 3.2 | 0.00 | 0.00 | 0.00 | 89 | 1017.4 |
| 20260507051415 | 0 | 90 | 0.0 | 3.2 | 0.00 | 0.00 | 0.00 | 91 | 1017.4 |
| 20260507045546 | 0 | 90 | 0.0 | 3.2 | 0.00 | 0.00 | 0.00 | 90 | 1017.5 |
| 20260507043929 | 0 | 90 | 0.0 | 3.2 | 0.00 | 0.00 | 0.00 | 90 | 1017.5 |
| 20260507042032 | -1 | 90 | 0.0 | 1.6 | 0.00 | 0.00 | 0.00 | 91 | 1017.6 |
| 20260507040129 | -1 | 90 | 0.0 | 3.2 | 0.00 | 0.00 | 0.00 | 90 | 1017.6 |
| 20260507034222 | -1 | 90 | 0.0 | 3.2 | 0.00 | 0.00 | 0.00 | 89 | 1017.6 |
| 20260507032444 | -2 | 90 | 0.0 | 1.6 | 0.00 | 0.00 | 0.00 | 89 | 1017.5 |
| 20260507030544 | -2 | 90 | 0.0 | 3.2 | 0.00 | 0.00 | 0.00 | 88 | 1017.3 |
| 20260507024634 | -2 | 45 | 0.0 | 3.2 | 0.00 | 0.00 | 0.00 | 87 | 1017.3 |
| 20260507022744 | -2 | 90 | 0.0 | 3.2 | 0.00 | 0.00 | 0.00 | 87 | 1017.3 |
| 20260507020939 | 2 | 90 | 0.0 | 1.6 | 0.00 | 0.00 | 0.00 | 70 | 1016.3 |
| 20260507015135 | 2 | 90 | 0.0 | 1.6 | 0.00 | 0.00 | 0.00 | 70 | 1016.3 |
| 20260507015054 | 2 | 90 | 0.0 | 1.6 | 0.00 | 0.00 | 0.00 | 70 | 1016.3 |
| 20260507013415 | 2 | 90 | 0.0 | 1.6 | 0.00 | 0.00 | 0.00 | 70 | 1016.3 |
| 20260507013409 | 2 | 90 | 0.0 | 1.6 | 0.00 | 0.00 | 0.00 | 70 | 1016.3 |
| 20260507011714 | 2 | 90 | 0.0 | 1.6 | 0.00 | 0.00 | 0.00 | 70 | 1016.3 |
| 20260507010117 | 2 | 90 | 0.0 | 1.6 | 0.00 | 0.00 | 0.00 | 70 | 1016.3 |
| 20260507004509 | 2 | 90 | 0.0 | 1.6 | 0.00 | 0.00 | 0.00 | 70 | 1016.3 |
| 20260507002624 | 2 | 90 | 0.0 | 1.6 | 0.00 | 0.00 | 0.00 | 70 | 1016.3 |
| 20260507000746 | 2 | 90 | 0.0 | 1.6 | 0.00 | 0.00 | 0.00 | 70 | 1016.3 |
| 20260507000744 | 2 | 90 | 0.0 | 1.6 | 0.00 | 0.00 | 0.00 | 70 | 1016.3 |
| 20260506234849 | 2 | 90 | 0.0 | 1.6 | 0.00 | 0.00 | 0.00 | 70 | 1016.3 |
| 20260506233207 | 2 | 90 | 0.0 | 1.6 | 0.00 | 0.00 | 0.00 | 1016.3 | |
| 20260506233204 | 2 | 90 | 0.0 | 1.6 | 0.00 | 0.00 | 0.00 | 70 | 1016.3 |
| 20260506231559 | 2 | 90 | 0.0 | 1.6 | 0.00 | 0.00 | 0.00 | 70 | 1016.3 |
| 20260506225809 | 2 | 90 | 0.0 | 1.6 | 0.00 | 0.00 | 0.00 | 70 | 1016.3 |
| 20260506223856 | 2 | 90 | 0.0 | 1.6 | 0.00 | 0.00 | 0.00 | 70 | 1016.3 |
| 20260506222209 | 2 | 90 | 0.0 | 1.6 | 0.00 | 0.00 | 0.00 | 70 | 1016.3 |
| 20260506220224 | 2 | 90 | 0.0 | 1.6 | 0.00 | 0.00 | 0.00 | 70 | 1016.3 |
| 20260506214542 | 2 | 90 | 0.0 | 1.6 | 0.00 | 0.00 | 0.00 | 70 | 1016.3 |
| 20260506212652 | 2 | 90 | 0.0 | 1.6 | 0.00 | 0.00 | 0.00 | 70 | 1016.3 |
| 20260506210939 | 2 | 90 | 0.0 | 1.6 | 0.00 | 0.00 | 0.00 | 70 | 1016.3 |
| 20260506205300 | 3 | 90 | 1.6 | 3.2 | 0.00 | 0.00 | 0.15 | 1016.3 | |
| 20260506205254 | 3 | 90 | 1.6 | 3.2 | 0.00 | 0.00 | 0.00 | 68 | 1016.3 |
| 20260506203512 | 3 | 90 | 0.0 | 3.2 | 0.00 | 0.00 | 0.00 | 65 | 1016.1 |
| 20260506201824 | 3 | 90 | 1.6 | 4.8 | 0.00 | 0.00 | 0.00 | 63 | 1016.0 |
| 20260506195851 | -17 | 90 | 0.0 | 0.0 | 0.00 | 0.00 | 0.00 | 61 | 1016.0 |
| 20260506195844 | 4 | 90 | 0.0 | 3.2 | 0.00 | 0.00 | 0.00 | 61 | 1016.0 |
| 20260506194017 | 5 | 90 | 0.0 | 1.6 | 0.00 | 0.00 | 0.00 | 58 | 1016.0 |
| 20260506194012 | 5 | 90 | 0.0 | 1.6 | 0.00 | 0.00 | 0.00 | 58 | 1016.0 |
| 20260506192324 | 6 | 90 | 1.6 | 3.2 | 0.00 | 0.00 | 0.00 | 53 | 1015.8 |
| 20260506190439 | 6 | 90 | 1.6 | 4.8 | 0.00 | 0.00 | 0.00 | 49 | 1015.7 |
| 20260506184534 | 7 | 90 | 1.6 | 3.2 | 0.00 | 0.00 | 0.00 | 48 | 1015.5 |
| 20260506182909 | 8 | 90 | 1.6 | 3.2 | 0.00 | 0.00 | 0.00 | 47 | 1015.5 |
| 20260506181139 | 10 | 90 | 1.6 | 3.2 | 0.00 | 0.00 | 0.00 | 44 | 1015.4 |
| 20260506175306 | 11 | 45 | 0.0 | 1.6 | 0.00 | 0.00 | 0.00 | 5.2 | |
| 20260506175258 | 11 | 45 | 0.0 | 1.6 | 0.00 | 0.00 | 0.00 | 38 | 1015.2 |
| 20260506173429 | 11 | 45 | 0.0 | 4.8 | 0.00 | 0.00 | 0.00 | 38 | 1015.1 |
| 20260506171714 | 11 | 324 | 1.6 | 4.8 | 0.00 | 0.00 | 0.00 | 38 | 1015.0 |
| 20260506165956 | 11 | 324 | 1.6 | 6.4 | 0.00 | 0.00 | 0.00 | 1015.0 | |
| 20260506165949 | 11 | 324 | 1.6 | 6.4 | 0.00 | 0.00 | 0.00 | 38 | 1015.0 |
| 20260506164053 | 11 | 48 | 0.0 | 4.8 | 0.00 | 0.00 | 0.00 | 38 | 1014.9 |
| 20260506162311 | 11 | 289 | 3.2 | 8.0 | 0.00 | 0.00 | 0.00 | 39 | 1014.8 |
| 20260506160712 | 11 | 275 | 4.8 | 12.9 | 0.00 | 0.00 | 0.00 | 38 | 1014.9 |
| 20260506155029 | 11 | 270 | 3.2 | 6.4 | 0.00 | 0.00 | 0.00 | 37 | 1014.8 |
| 20260506153424 | 11 | 294 | 1.6 | 8.0 | 0.00 | 0.00 | 0.00 | 37 | 1014.8 |
| 20260506151439 | 11 | 291 | 4.8 | 9.7 | 0.00 | 0.00 | 0.00 | 38 | 1014.7 |
| 20260506145829 | 11 | 8 | 1.6 | 4.8 | 0.00 | 0.00 | 0.00 | 37 | 1014.7 |
| 20260506143909 | 11 | 300 | 4.8 | 14.5 | 0.00 | 0.00 | 0.00 | 38 | 1014.7 |
| 20260506141909 | 11 | 285 | 4.8 | 9.7 | 0.00 | 0.00 | 0.00 | 39 | 1014.7 |
| 20260506135959 | 10 | 247 | 4.8 | 9.7 | 0.00 | 0.00 | 0.00 | 37 | 1014.8 |
| 20260506134017 | 11 | 246 | 3.2 | 16.1 | 0.00 | 0.00 | 0.00 | 38 | 1014.8 |
| 20260506132419 | 10 | 307 | 3.2 | 12.9 | 0.00 | 0.00 | 0.00 | 39 | 1014.7 |
| 20260506130424 | 10 | 33 | 0.0 | 4.8 | 0.00 | 0.00 | 0.00 | 40 | 1014.7 |
| 20260506124738 | 10 | 9 | 0.0 | 3.2 | 0.00 | 0.00 | 0.00 | 42 | 1014.8 |
| 20260506124734 | 10 | 9 | 0.0 | 3.2 | 0.00 | 0.00 | 0.00 | 42 | 1014.8 |
| 20260506122819 | 10 | 232 | 4.8 | 12.9 | 0.00 | 0.00 | 0.00 | 40 | 1014.8 |
| 20260506121019 | 11 | 225 | 4.8 | 12.9 | 0.00 | 0.00 | 0.00 | 39 | 1014.7 |
| 20260506115209 | 10 | 9 | 0.0 | 3.2 | 0.00 | 0.00 | 0.00 | 44 | 1014.7 |
| 20260506113429 | 11 | 308 | 3.2 | 9.7 | 0.00 | 0.00 | 0.00 | 41 | 1014.8 |
| 20260506111524 | 10 | 270 | 4.8 | 16.1 | 0.00 | 0.00 | 0.00 | 40 | 1015.0 |
| 20260506105621 | 10 | 303 | 4.8 | 12.9 | 0.00 | 0.00 | 0.00 | 42 | 1014.8 |
| 20260506103814 | 10 | 248 | 4.8 | 12.9 | 0.00 | 0.00 | 0.00 | 45 | 1014.8 |
| 20260506102129 | 10 | 278 | 3.2 | 12.9 | 0.00 | 0.00 | 0.00 | 43 | 1014.7 |
| 20260506100409 | 10 | 251 | 4.8 | 19.3 | 0.00 | 0.00 | 0.00 | 42 | 1014.8 |
| 20260506094509 | 10 | 218 | 4.8 | 12.9 | 0.00 | 0.00 | 0.00 | 45 | 1014.6 |
| 20260506092811 | 10 | 311 | 3.2 | 9.7 | 0.00 | 0.00 | 0.00 | 48 | 1014.6 |
| 20260506092804 | 10 | 311 | 3.2 | 9.7 | 0.00 | 0.00 | 0.00 | 48 | 1014.6 |
| 20260506091104 | 9 | 212 | 1.6 | 6.4 | 0.00 | 0.00 | 0.00 | 49 | 1014.5 |
| 20260506085239 | 10 | 270 | 4.8 | 9.7 | 0.00 | 0.00 | 0.00 | 48 | 1014.5 |
| 20260506083344 | 9 | 303 | 1.6 | 8.0 | 0.00 | 0.00 | 0.00 | 49 | 1014.4 |
| 20260506081709 | 8 | 286 | 1.6 | 9.7 | 0.00 | 0.00 | 0.00 | 52 | 1014.4 |